world map with FLR marked

FLR - Airport

This information may not be accurate or current and is not valid for navigation or flight planning. No warranty of fitness for any purpose is made or implied.

flag of Tuscanyflag of Italy

Donate via PayPal

Additional information is available on the NEW Great Circle Mapper

Location
City:  Florence, Tuscany, Italy
Near (Alt.):Firenze
Name:Peretola (Amerigo Vespucci)
ICAO / IATA:LIRQ / FLR

Details
Type:Airport (Aerodrome, Airfield)
Use:Public/Civil
Latitude:43°48'36"N (43.809953)
Longitude:11°12'18"E (11.205100)
Datum:WGS 1984
Elevation:142 ft (43 m)
Runways:1
Longest:5425 × 98 ft (1654 × 30 m)

Time
Timezone:UTC+1 (DST+4)
Local Time:

Weather
METAR:LIRQ  180150Z 34005KT 270V060 CAVOK 11/04 Q1016
TAF:LIRQ  172300Z 1800/1824 04007KT CAVOK

Related Locations
Nearby:
Farthest:CHT: 12058 mi / 19405 km
Waitangi [Tuuta], CIT, NZ

Find:

   beyond  
but within

Other Information
Maps:
Links:
Sources:

  


 


Great Circle Mapper   Great Circle Mapper
Great Circle Mapper FAQ   Great Circle Mapper FAQ
  Karl's Home Page
KLSē   KLSē Home
   GC on Facebook
Airlines of the World   Airlines of the World
Donate via PayPal


Copyright © 2004-2017, Karl L. Swartz. All rights reserved.
All trademarks mentioned herein belong to their respective owners.

Please see credits for attribution and copyright information.

Karl Swartz <karl@kls2.com>
  Powered by FreeBSD
Valid HTML 4.01!
Labeled with ICRA
hCard Microformat
Geo Microformat